»·PEaware :: N15JG KPOC-15AZ

N15JG :: KPOC-15AZ

FLIGHT INFORMATION

Flight Status: Arrived
Operator: Privately registered:
United States
More flights under this callsign
Pilot: Anonymous 11047 (11047)
Aircraft: PIPER PA-24 COMMANCHE
(PA24)
More flights by this aircraft type
Origin: KPOC Brackett
United States
Destination: 15AZ Quail Mesa
United States
More flights between these airports :: More routes between these airports
Route:
File this flight plan on PilotEdge
Remarks: Alphabet Challenge Flight
Altitude:
(Current/Filed)
7,500ft
Speed:
(Current/Filed)
170kts
Departed: 02-Dec-16 08:10 PM
Arrived: 02-Dec-16 09:25 PM
Distance/Time
Traveled:
166nm/1:14
Distance/Time
To Go:
Arrived

Flight Plot

Page will automatically refresh every two minutes.


Map Options




Map Legend


Flown Route
Filed Route
Departure Airport
Arrival Airport
Navaid (VOR, NDB)
Fix

Horizontal Profiles

Position Reports

Time Latitude Longitude Heading Altitude Ground
Speed
02-Dec-16 19:20 34.089352 -117.777701 182 1014ft 0kts
02-Dec-16 19:21 34.089350 -117.777701 182 1014ft 0kts
02-Dec-16 19:22 34.089349 -117.777701 182 1014ft 0kts
02-Dec-16 19:23 34.089347 -117.777701 182 1014ft 0kts
02-Dec-16 19:24 34.089345 -117.777701 182 1014ft 0kts
02-Dec-16 19:25 34.089343 -117.777701 182 1014ft 0kts
02-Dec-16 19:26 34.089341 -117.777701 182 1014ft 0kts
02-Dec-16 19:27 34.089339 -117.777701 182 1014ft 0kts
02-Dec-16 19:28 34.089337 -117.777702 182 1014ft 0kts
02-Dec-16 19:29 34.089335 -117.777702 182 1014ft 0kts
02-Dec-16 19:30 34.089334 -117.777702 182 1014ft 0kts
02-Dec-16 19:31 34.089332 -117.777702 182 1014ft 0kts
02-Dec-16 19:32 34.089330 -117.777702 182 1014ft 0kts
02-Dec-16 19:33 34.089328 -117.777702 182 1014ft 0kts
02-Dec-16 19:34 34.089326 -117.777702 182 1014ft 0kts
02-Dec-16 19:35 34.089324 -117.777702 182 1014ft 0kts
02-Dec-16 19:36 34.089322 -117.777702 182 1014ft 0kts
02-Dec-16 19:37 34.089321 -117.777703 182 1014ft 0kts
02-Dec-16 19:38 34.089319 -117.777703 182 1014ft 0kts
02-Dec-16 19:39 34.089317 -117.777703 182 1014ft 0kts
02-Dec-16 19:40 34.089315 -117.777703 182 1014ft 0kts
02-Dec-16 19:41 34.089313 -117.777703 182 1014ft 0kts
02-Dec-16 19:42 34.089311 -117.777703 182 1014ft 0kts
02-Dec-16 19:43 34.089310 -117.777703 182 1014ft 0kts
02-Dec-16 19:44 34.089308 -117.777703 182 1014ft 0kts
02-Dec-16 19:45 34.089306 -117.777704 182 1014ft 0kts
02-Dec-16 19:46 34.089304 -117.777704 182 1014ft 0kts
02-Dec-16 19:47 34.089302 -117.777704 182 1014ft 0kts
02-Dec-16 19:48 34.089300 -117.777704 182 1014ft 0kts
02-Dec-16 19:49 34.089299 -117.777704 182 1014ft 0kts
02-Dec-16 19:50 34.089298 -117.777704 182 1014ft 0kts
02-Dec-16 19:51 34.089297 -117.777704 182 1014ft 0kts
02-Dec-16 19:52 34.089295 -117.777704 182 1014ft 0kts
02-Dec-16 19:53 34.089294 -117.777704 182 1014ft 0kts
02-Dec-16 19:54 34.089292 -117.777704 182 1014ft 0kts
02-Dec-16 19:55 34.089226 -117.777851 317 1014ft 4kts
02-Dec-16 19:56 34.089341 -117.777911 343 1014ft 0kts
02-Dec-16 19:57 34.090129 -117.778747 316 1014ft 10kts
02-Dec-16 19:58 34.090646 -117.782366 272 1014ft 16kts
02-Dec-16 19:59 34.090834 -117.786989 272 1014ft 14kts
02-Dec-16 20:00 34.091200 -117.790369 4 1014ft 3kts
02-Dec-16 20:01 34.091332 -117.790356 3 1014ft 0kts
02-Dec-16 20:02 34.091569 -117.790333 23 1014ft 12kts
02-Dec-16 20:03 34.089842 -117.765555 96 1660ft 111kts
02-Dec-16 20:04 34.085523 -117.729396 95 2675ft 125kts
02-Dec-16 20:05 34.079520 -117.680794 96 3250ft 146kts
02-Dec-16 20:06 34.064502 -117.633651 108 3924ft 152kts
02-Dec-16 20:07 34.057629 -117.583866 93 4490ft 151kts
02-Dec-16 20:08 34.050485 -117.533263 91 5166ft 153kts
02-Dec-16 20:09 34.039191 -117.482612 102 5931ft 158kts
02-Dec-16 20:10 34.024610 -117.432990 100 6341ft 152kts
02-Dec-16 20:11 34.013095 -117.386539 95 7156ft 139kts
02-Dec-16 20:12 34.004574 -117.339494 95 7541ft 154kts
02-Dec-16 20:13 33.994687 -117.289150 92 7697ft 153kts
02-Dec-16 20:14 33.986540 -117.238089 94 7834ft 159kts
02-Dec-16 20:15 33.977176 -117.184657 88 7613ft 164kts
02-Dec-16 20:16 33.972764 -117.130872 86 7614ft 154kts
02-Dec-16 20:17 33.968219 -117.077633 89 7501ft 160kts
02-Dec-16 20:18 33.961589 -117.025019 90 7586ft 160kts
02-Dec-16 20:19 33.954969 -116.971377 88 7533ft 161kts
02-Dec-16 20:20 33.947318 -116.918023 92 7553ft 160kts
02-Dec-16 20:21 33.939059 -116.865587 90 7670ft 159kts
02-Dec-16 20:22 33.932258 -116.811734 87 7652ft 163kts
02-Dec-16 20:23 33.929732 -116.757135 84 7501ft 161kts
02-Dec-16 20:24 33.920482 -116.702573 92 7490ft 165kts
02-Dec-16 20:25 33.908566 -116.648258 97 7519ft 167kts
02-Dec-16 20:26 33.896090 -116.594370 88 7611ft 166kts
02-Dec-16 20:27 33.891070 -116.538921 90 7683ft 175kts
02-Dec-16 20:28 33.880032 -116.480195 93 7317ft 180kts
02-Dec-16 20:29 33.865941 -116.423366 99 7255ft 177kts
02-Dec-16 20:30 33.858445 -116.368585 79 7461ft 163kts
02-Dec-16 20:31 33.850693 -116.312357 86 7408ft 167kts
02-Dec-16 20:32 33.843952 -116.258216 92 7554ft 168kts
02-Dec-16 20:33 33.833355 -116.203578 91 7652ft 168kts
02-Dec-16 20:34 33.824707 -116.148589 85 7768ft 168kts
02-Dec-16 20:35 33.819852 -116.091211 91 7592ft 179kts
02-Dec-16 20:36 33.808066 -116.033581 97 7440ft 179kts
02-Dec-16 20:37 33.791665 -115.976760 97 7405ft 179kts
02-Dec-16 20:38 33.778765 -115.919946 86 7380ft 171kts
02-Dec-16 20:39 33.771736 -115.863510 85 7446ft 168kts
02-Dec-16 20:40 33.767145 -115.808006 82 7406ft 162kts
02-Dec-16 20:41 33.763955 -115.754413 81 7501ft 157kts
02-Dec-16 20:42 33.758926 -115.701482 91 7727ft 165kts
02-Dec-16 20:43 33.748245 -115.647303 92 7905ft 172kts
02-Dec-16 20:44 33.736197 -115.590370 97 7767ft 176kts
02-Dec-16 20:45 33.722599 -115.534105 93 7502ft 173kts
02-Dec-16 20:46 33.709033 -115.478716 95 7526ft 170kts
02-Dec-16 20:47 33.698011 -115.423186 88 7524ft 172kts
02-Dec-16 20:48 33.696399 -115.391410 82 7609ft 162kts
02-Dec-16 20:49 33.685760 -115.336042 87 7334ft 167kts
02-Dec-16 20:50 33.678418 -115.291353 92 7236ft 169kts
02-Dec-16 20:51 33.664843 -115.238791 98 7491ft 166kts
02-Dec-16 20:52 33.653288 -115.191095 100 7428ft 169kts
02-Dec-16 20:53 33.637928 -115.137953 104 7348ft 169kts
02-Dec-16 20:54 33.619132 -115.086428 94 7281ft 164kts
02-Dec-16 20:55 33.616442 -115.035029 83 7511ft 152kts
02-Dec-16 20:56 33.614552 -114.983559 82 7569ft 154kts
02-Dec-16 20:57 33.613482 -114.932345 77 7638ft 151kts
02-Dec-16 20:58 33.615746 -114.881826 89 7696ft 157kts
02-Dec-16 20:59 33.610723 -114.829925 83 7508ft 158kts
02-Dec-16 21:00 33.603293 -114.778009 92 7115ft 159kts
02-Dec-16 21:01 33.603073 -114.728988 46 6801ft 137kts
02-Dec-16 21:02 33.628637 -114.695459 47 6070ft 142kts
02-Dec-16 21:03 33.647631 -114.654540 54 5861ft 137kts
02-Dec-16 21:04 33.670054 -114.628167 35 5625ft 134kts
02-Dec-16 21:05 33.696913 -114.594314 55 4839ft 148kts
02-Dec-16 21:06 33.714090 -114.549782 55 3949ft 151kts
02-Dec-16 21:07 33.735274 -114.506806 42 3035ft 151kts
02-Dec-16 21:08 33.760553 -114.465123 40 2068ft 151kts
02-Dec-16 21:09 33.791699 -114.457828 299 1638ft 133kts
02-Dec-16 21:10 33.766286 -114.485963 185 1016ft 169kts
02-Dec-16 21:11 33.725789 -114.485466 182 324ft 119kts
02-Dec-16 21:12 33.687994 -114.487724 184 1109ft 138kts
02-Dec-16 21:13 33.684476 -114.462311 358 1377ft 118kts
02-Dec-16 21:14 33.712794 -114.460870 356 1254ft 87kts
02-Dec-16 21:15 33.737163 -114.459546 1 1257ft 86kts
02-Dec-16 21:16 33.751887 -114.471146 278 819ft 91kts
02-Dec-16 21:17 33.732573 -114.485353 183 329ft 94kts
02-Dec-16 21:18 33.723588 -114.485233 325 287ft 16kts
02-Dec-16 21:19 33.727926 -114.485430 1 287ft 14kts
02-Dec-16 21:20 33.729407 -114.485067 296 287ft 0kts
02-Dec-16 21:21 33.729409 -114.485072 296 287ft 0kts

Navigation Log

Ident Type
Flight plan parsing failed, navigation log unavailable